Time;durP1;ratioP1;P1;durP2;ratioP2;P2;SDS_P1;SDS_P2;PMS_P1;PMS_P2;Temp;Humidity;BMP_temperature;BMP_pressure;BME280_temperature;BME280_humidity;BME280_pressure;Samples;Min_cycle;Max_cycle;Signal;HPM_P1;HPM_P2
2023/10/07 00:01:24;;;;;;;1.63;1.30;;;13.60;99.90;;;;;;7398734;19;20149;-89
2023/10/07 00:03:53;;;;;;;2.75;1.40;;;13.70;99.90;;;;;;7396258;19;20173;-88
2023/10/07 00:06:29;;;;;;;2.40;1.63;;;13.60;99.90;;;;;;7393248;19;20154;-90
2023/10/07 00:08:58;;;;;;;2.17;1.10;;;13.80;99.90;;;;;;7395982;19;20157;-88
2023/10/07 00:11:27;;;;;;;2.00;1.10;;;14.10;99.90;;;;;;7395598;19;20146;-89
2023/10/07 00:13:54;;;;;;;1.38;1.05;;;14.10;99.90;;;;;;7396721;19;20123;-89
2023/10/07 00:16:23;;;;;;;4.43;1.48;;;14.20;99.90;;;;;;7395451;19;20138;-87
2023/10/07 00:18:49;;;;;;;2.03;1.30;;;14.30;99.90;;;;;;7394476;19;20154;-89
2023/10/07 00:21:25;;;;;;;2.08;1.02;;;14.20;99.90;;;;;;7395893;19;20142;-90
2023/10/07 00:23:52;;;;;;;2.70;1.25;;;14.20;99.90;;;;;;7394764;19;20238;-86
2023/10/07 00:26:18;;;;;;;1.08;0.90;;;14.40;99.90;;;;;;7397001;19;20483;-89
2023/10/07 00:28:59;;;;;;;2.65;1.20;;;14.30;99.90;;;;;;7395039;19;20131;-89
2023/10/07 00:31:27;;;;;;;1.63;1.20;;;14.10;99.90;;;;;;7396583;19;20691;-86
2023/10/07 00:34:04;;;;;;;3.90;1.83;;;14.10;99.90;;;;;;7401494;19;20461;-89
2023/10/07 00:39:09;;;;;;;1.65;1.30;;;13.80;99.90;;;;;;7392947;19;20151;-88
2023/10/07 00:42:10;;;;;;;2.00;1.10;;;13.90;99.90;;;;;;7394496;19;20566;-88
2023/10/07 00:44:31;;;;;;;1.95;1.45;;;13.90;99.90;;;;;;7391127;19;20150;-86
2023/10/07 00:49:29;;;;;;;1.63;1.08;;;13.80;99.90;;;;;;7395338;19;20127;-88
2023/10/07 00:51:57;;;;;;;1.45;1.17;;;13.80;99.90;;;;;;7393929;19;20146;-87
2023/10/07 00:54:44;;;;;;;2.05;1.23;;;13.60;99.90;;;;;;7393620;19;20437;-86
2023/10/07 00:57:22;;;;;;;2.28;1.25;;;13.80;99.90;;;;;;7393548;19;20151;-83
2023/10/07 00:59:51;;;;;;;2.97;1.20;;;13.80;99.90;;;;;;7396776;19;20599;-87
2023/10/07 01:02:29;;;;;;;1.30;1.10;;;14.00;99.90;;;;;;7393132;19;20138;-88
2023/10/07 01:05:00;;;;;;;2.50;1.30;;;14.00;99.90;;;;;;7392156;19;20137;-89
2023/10/07 01:07:31;;;;;;;1.92;1.20;;;14.10;99.90;;;;;;7391010;19;20186;-88
2023/10/07 01:12:39;;;;;;;2.13;1.38;;;13.90;99.90;;;;;;7393181;19;20556;-87
2023/10/07 01:15:27;;;;;;;3.63;1.75;;;13.90;99.90;;;;;;7393193;19;20141;-87
2023/10/07 01:18:03;;;;;;;1.10;1.00;;;13.90;99.90;;;;;;7391863;19;20131;-88
2023/10/07 01:23:22;;;;;;;1.85;1.40;;;13.70;99.90;;;;;;7393353;19;20151;-88
2023/10/07 01:25:50;;;;;;;2.25;1.23;;;13.80;99.90;;;;;;7393378;19;20154;-88
2023/10/07 01:28:20;;;;;;;1.30;0.98;;;13.60;99.90;;;;;;7393891;19;20148;-88
2023/10/07 01:31:07;;;;;;;1.65;1.25;;;13.70;99.90;;;;;;7396362;19;20182;-88
2023/10/07 01:33:39;;;;;;;2.05;1.40;;;13.80;99.90;;;;;;7393503;19;20146;-87
2023/10/07 01:36:24;;;;;;;2.40;1.33;;;14.00;99.90;;;;;;7394149;19;20147;-89
2023/10/07 01:38:51;;;;;;;2.45;1.70;;;13.80;99.90;;;;;;7390448;19;20130;-88
2023/10/07 01:41:27;;;;;;;2.55;1.27;;;13.80;99.90;;;;;;7393524;19;20154;-87
2023/10/07 01:43:59;;;;;;;2.80;1.38;;;14.00;99.90;;;;;;7394519;19;20483;-87
2023/10/07 01:46:31;;;;;;;1.60;1.20;;;14.00;99.90;;;;;;7393339;19;20198;-87
2023/10/07 01:48:59;;;;;;;2.30;1.30;;;13.80;99.90;;;;;;7390295;19;20151;-87
2023/10/07 01:51:30;;;;;;;2.13;1.42;;;13.70;99.90;;;;;;7394164;19;20480;-88
2023/10/07 01:53:57;;;;;;;2.25;1.38;;;13.80;99.90;;;;;;7393081;19;20143;-89
2023/10/07 01:56:29;;;;;;;2.90;1.60;;;13.60;99.90;;;;;;7393243;19;20149;-89
2023/10/07 01:59:03;;;;;;;2.10;1.30;;;13.40;99.90;;;;;;7389114;19;20138;-88
2023/10/07 02:01:29;;;;;;;3.20;1.92;;;13.30;99.90;;;;;;7393993;19;20141;-87
2023/10/07 02:03:59;;;;;;;2.22;1.50;;;13.70;99.90;;;;;;7392310;19;20599;-86
2023/10/07 02:06:26;;;;;;;2.33;1.58;;;13.80;99.90;;;;;;7390143;19;20170;-88
2023/10/07 02:08:57;;;;;;;3.63;1.45;;;13.80;99.90;;;;;;7393070;19;20205;-87
2023/10/07 02:11:31;;;;;;;1.67;1.08;;;13.80;99.90;;;;;;7392653;19;20162;-87
2023/10/07 02:13:58;;;;;;;2.60;1.33;;;13.80;99.90;;;;;;7392857;19;20154;-88
2023/10/07 02:16:25;;;;;;;2.63;1.60;;;13.80;99.90;;;;;;7389228;19;20426;-87
2023/10/07 02:18:52;;;;;;;2.45;1.92;;;13.80;99.90;;;;;;7389577;19;20134;-89
2023/10/07 02:21:20;;;;;;;2.37;1.63;;;13.60;99.90;;;;;;7393482;19;20151;-88
2023/10/07 02:23:47;;;;;;;2.92;1.70;;;13.80;99.90;;;;;;7394320;19;20146;-88
2023/10/07 02:28:44;;;;;;;2.03;1.45;;;13.50;99.90;;;;;;7394342;19;20175;-87
2023/10/07 02:31:15;;;;;;;2.50;1.23;;;13.60;99.90;;;;;;7392943;19;20142;-86
2023/10/07 02:33:42;;;;;;;1.77;1.25;;;13.50;99.90;;;;;;7395425;19;20130;-87
2023/10/07 02:36:14;;;;;;;1.80;1.63;;;13.20;99.90;;;;;;7396636;19;20158;-85
2023/10/07 02:38:44;;;;;;;2.83;1.73;;;12.80;99.90;;;;;;7394310;19;20143;-88
2023/10/07 02:41:19;;;;;;;3.00;1.60;;;12.60;99.90;;;;;;7398213;19;20202;-87
2023/10/07 02:43:48;;;;;;;1.50;1.20;;;12.60;99.90;;;;;;7396284;19;20149;-87
2023/10/07 02:46:31;;;;;;;1.90;1.50;;;12.70;99.90;;;;;;7395127;19;20152;-88
2023/10/07 02:49:10;;;;;;;3.42;1.48;;;13.10;99.90;;;;;;7396428;19;20631;-87
2023/10/07 02:51:46;;;;;;;1.50;1.40;;;13.10;99.90;;;;;;7391915;19;20129;-85
2023/10/07 02:54:18;;;;;;;3.10;1.70;;;13.10;99.90;;;;;;7393346;19;20134;-88
2023/10/07 02:57:07;;;;;;;3.00;1.73;;;13.20;99.90;;;;;;7392507;19;20131;-89
2023/10/07 02:59:50;;;;;;;1.48;1.02;;;13.00;99.90;;;;;;7390644;19;20150;-88
2023/10/07 03:04:46;;;;;;;2.25;1.38;;;12.20;99.90;;;;;;7391970;19;20927;-87
2023/10/07 03:07:16;;;;;;;1.85;1.45;;;12.20;99.90;;;;;;7390551;19;20143;-89
2023/10/07 03:09:54;;;;;;;3.75;1.60;;;12.50;99.90;;;;;;7387745;19;20150;-89
2023/10/07 03:12:27;;;;;;;2.97;1.13;;;12.40;99.90;;;;;;7391759;19;20126;-89
2023/10/07 03:14:59;;;;;;;2.75;1.50;;;12.30;99.90;;;;;;7389225;19;20130;-88
2023/10/07 03:17:33;;;;;;;1.92;1.25;;;12.20;99.90;;;;;;7390076;19;20214;-87
2023/10/07 03:20:27;;;;;;;2.85;1.20;;;12.50;99.90;;;;;;7389602;19;20193;-87
2023/10/07 03:25:47;;;;;;;3.70;1.50;;;12.40;99.90;;;;;;7391105;19;20592;-90
2023/10/07 03:28:16;;;;;;;3.63;1.25;;;12.70;99.90;;;;;;7390334;19;20166;-86
2023/10/07 03:30:51;;;;;;;1.88;1.45;;;12.20;99.90;;;;;;7397176;19;20449;-89
2023/10/07 03:33:32;;;;;;;2.80;1.33;;;12.20;99.90;;;;;;7399601;19;20193;-88
2023/10/07 03:38:29;;;;;;;1.80;1.48;;;12.10;99.90;;;;;;7396353;19;20147;-86
2023/10/07 03:40:56;;;;;;;1.98;1.23;;;12.30;99.90;;;;;;7395943;19;20478;-87
2023/10/07 03:43:25;;;;;;;1.92;1.13;;;12.10;99.90;;;;;;7395287;19;20172;-87
2023/10/07 03:45:52;;;;;;;1.55;1.25;;;12.10;99.90;;;;;;7395752;19;20135;-89
2023/10/07 03:48:24;;;;;;;3.15;1.60;;;12.30;99.90;;;;;;7396926;19;20246;-88
2023/10/07 03:51:05;;;;;;;2.80;1.60;;;12.70;99.90;;;;;;7397478;19;20151;-88
2023/10/07 03:53:32;;;;;;;2.10;1.23;;;12.40;99.90;;;;;;7396478;19;20615;-88
2023/10/07 03:56:06;;;;;;;1.92;1.50;;;12.20;99.90;;;;;;7396150;19;20210;-87
2023/10/07 03:58:33;;;;;;;1.55;1.00;;;12.40;99.90;;;;;;7395467;19;20137;-86
2023/10/07 04:01:17;;;;;;;2.97;1.73;;;12.70;99.90;;;;;;7394920;19;20558;-89
2023/10/07 04:03:47;;;;;;;1.50;1.33;;;12.40;99.90;;;;;;7394310;19;20830;-87
2023/10/07 04:06:16;;;;;;;1.63;1.23;;;12.60;99.90;;;;;;7393983;19;20142;-88
2023/10/07 04:08:44;;;;;;;3.78;1.92;;;12.90;99.90;;;;;;7395471;19;20146;-87
2023/10/07 04:11:19;;;;;;;2.10;1.20;;;12.90;99.90;;;;;;7396265;19;20135;-87
2023/10/07 04:13:45;;;;;;;5.38;2.47;;;12.30;99.90;;;;;;7396031;19;20476;-88
2023/10/07 04:16:22;;;;;;;1.88;1.30;;;12.10;99.90;;;;;;7394433;19;20174;-88
2023/10/07 04:18:53;;;;;;;2.08;1.40;;;12.20;99.90;;;;;;7393483;19;20134;-87
2023/10/07 04:21:23;;;;;;;2.45;1.55;;;12.50;99.90;;;;;;7394236;19;20581;-84
2023/10/07 04:23:50;;;;;;;1.70;1.08;;;12.10;99.90;;;;;;7393863;19;20529;-87
2023/10/07 04:26:21;;;;;;;3.35;1.30;;;12.10;99.90;;;;;;7394547;19;20131;-86
2023/10/07 04:28:48;;;;;;;3.05;1.55;;;11.70;99.90;;;;;;7394042;19;20146;-87
2023/10/07 04:31:16;;;;;;;5.22;1.85;;;11.80;99.90;;;;;;7393885;19;20365;-86
2023/10/07 04:33:48;;;;;;;1.25;1.00;;;11.90;99.90;;;;;;7394235;19;20142;-85
2023/10/07 04:36:15;;;;;;;2.17;1.67;;;11.90;99.90;;;;;;7394921;19;20151;-86
2023/10/07 04:38:54;;;;;;;2.10;1.20;;;11.60;99.90;;;;;;7391811;19;20141;-85
2023/10/07 04:43:56;;;;;;;1.20;0.95;;;11.80;99.90;;;;;;7393982;19;20145;-85
2023/10/07 04:46:28;;;;;;;2.40;1.35;;;12.10;99.90;;;;;;7395599;19;20134;-89
2023/10/07 04:49:12;;;;;;;1.67;1.23;;;12.00;99.90;;;;;;7394620;19;20194;-88
2023/10/07 04:54:10;;;;;;;3.20;1.90;;;11.80;99.90;;;;;;7394328;19;20130;-87
2023/10/07 04:56:37;;;;;;;2.50;1.60;;;12.20;99.90;;;;;;7394470;19;20235;-89
2023/10/07 04:59:06;;;;;;;2.63;1.92;;;12.40;99.90;;;;;;7393171;19;20134;-87
2023/10/07 05:01:33;;;;;;;1.25;1.10;;;12.60;99.90;;;;;;7396667;19;20138;-89
2023/10/07 05:04:04;;;;;;;2.28;1.27;;;11.90;99.90;;;;;;7394675;19;20620;-87
2023/10/07 05:06:34;;;;;;;2.08;1.88;;;11.80;99.90;;;;;;7392564;19;20186;-88
2023/10/07 05:09:18;;;;;;;1.35;1.10;;;12.10;99.90;;;;;;7393294;19;20621;-87
2023/10/07 05:11:46;;;;;;;1.77;1.13;;;12.20;99.90;;;;;;7393350;19;20560;-87
2023/10/07 05:14:22;;;;;;;2.90;1.67;;;11.90;99.90;;;;;;7394076;19;20145;-89
2023/10/07 05:16:48;;;;;;;3.38;1.67;;;11.90;99.90;;;;;;7395988;19;20230;-89
2023/10/07 05:19:22;;;;;;;2.60;1.43;;;12.20;99.90;;;;;;7390778;19;20158;-89
2023/10/07 05:21:59;;;;;;;2.13;1.60;;;12.20;99.90;;;;;;7394047;19;20689;-89
2023/10/07 05:24:28;;;;;;;2.25;1.17;;;12.20;99.90;;;;;;7392677;19;21619;-87
2023/10/07 05:26:55;;;;;;;2.20;1.58;;;11.80;99.90;;;;;;7393224;19;20142;-88
2023/10/07 05:29:21;;;;;;;1.90;1.40;;;11.30;99.90;;;;;;7395311;19;20198;-89
2023/10/07 05:31:48;;;;;;;2.20;1.60;;;11.20;99.90;;;;;;7392440;19;20141;-88
2023/10/07 05:34:15;;;;;;;1.63;1.17;;;11.20;99.90;;;;;;7392621;19;20130;-88
2023/10/07 05:36:40;;;;;;;2.30;1.73;;;11.20;99.90;;;;;;7392522;19;20506;-85
2023/10/07 05:39:13;;;;;;;1.73;1.17;;;11.60;99.90;;;;;;7390107;19;20135;-88
2023/10/07 05:41:41;;;;;;;3.15;1.63;;;11.50;99.90;;;;;;7392215;19;20154;-86
2023/10/07 05:44:09;;;;;;;1.70;1.17;;;11.50;99.90;;;;;;7393929;19;20138;-86
2023/10/07 05:46:35;;;;;;;2.40;1.30;;;11.40;99.90;;;;;;7393062;19;20235;-87
2023/10/07 05:49:02;;;;;;;1.98;1.27;;;11.30;99.90;;;;;;7393061;19;20174;-88
2023/10/07 05:51:28;;;;;;;1.85;1.20;;;11.40;99.90;;;;;;7392093;19;20131;-89
2023/10/07 05:53:53;;;;;;;1.63;0.98;;;11.80;99.90;;;;;;7392763;19;20153;-88
2023/10/07 05:56:19;;;;;;;2.45;1.38;;;12.10;99.90;;;;;;7392983;19;20143;-88
2023/10/07 05:58:45;;;;;;;2.78;1.83;;;12.40;99.90;;;;;;7389773;19;20600;-89
2023/10/07 06:01:12;;;;;;;2.00;1.40;;;12.50;99.90;;;;;;7392569;19;20142;-89
2023/10/07 06:03:38;;;;;;;1.45;1.17;;;12.30;99.90;;;;;;7393129;19;20131;-89
2023/10/07 06:06:06;;;;;;;1.92;1.48;;;12.30;99.90;;;;;;7391686;19;20480;-89
2023/10/07 06:08:32;;;;;;;1.38;1.10;;;12.40;99.90;;;;;;7393917;19;20123;-90
2023/10/07 06:10:59;;;;;;;2.55;1.85;;;12.50;99.90;;;;;;7395272;19;20485;-89
2023/10/07 06:13:29;;;;;;;2.38;1.38;;;12.60;99.90;;;;;;7393865;19;20633;-90
2023/10/07 06:15:58;;;;;;;1.48;1.38;;;12.30;99.90;;;;;;7394327;19;20153;-89
2023/10/07 06:18:25;;;;;;;1.40;1.25;;;12.20;99.90;;;;;;7390688;19;20188;-89
2023/10/07 06:20:52;;;;;;;1.13;1.00;;;12.40;99.90;;;;;;7393650;19;20195;-88
2023/10/07 06:23:20;;;;;;;1.27;1.15;;;12.50;99.90;;;;;;7393780;19;20138;-90
2023/10/07 06:25:51;;;;;;;1.70;1.38;;;12.60;99.90;;;;;;7392375;19;20489;-89
2023/10/07 06:31:10;;;;;;;3.13;1.58;;;12.20;99.90;;;;;;7392102;19;20519;-88
2023/10/07 06:33:44;;;;;;;2.47;1.50;;;12.50;99.90;;;;;;7390624;19;20131;-87
2023/10/07 06:36:12;;;;;;;2.55;1.98;;;12.30;99.90;;;;;;7388471;19;20134;-84
2023/10/07 06:38:45;;;;;;;4.15;1.52;;;12.10;99.90;;;;;;7387730;19;20473;-84
2023/10/07 06:41:11;;;;;;;3.83;2.10;;;12.10;99.90;;;;;;7390844;19;20135;-86
2023/10/07 06:43:47;;;;;;;2.83;1.67;;;12.30;99.90;;;;;;7392308;19;20537;-83
2023/10/07 06:46:13;;;;;;;2.40;1.27;;;12.60;99.90;;;;;;7392420;19;20126;-84
2023/10/07 06:48:39;;;;;;;3.28;1.20;;;12.80;99.90;;;;;;7389479;19;20603;-84
2023/10/07 06:51:06;;;;;;;1.57;1.20;;;12.70;99.90;;;;;;7389951;19;20154;-87
2023/10/07 06:53:38;;;;;;;2.13;1.50;;;12.70;99.90;;;;;;7391303;19;20613;-87
2023/10/07 06:56:04;;;;;;;1.52;1.38;;;12.90;99.90;;;;;;7390246;19;20135;-89
2023/10/07 06:58:30;;;;;;;2.03;1.10;;;13.20;99.90;;;;;;7389495;19;20680;-90
2023/10/07 07:01:51;;;;;;;2.17;1.40;;;13.30;99.90;;;;;;7389136;19;20163;-85
2023/10/07 07:03:44;;;;;;;2.00;1.38;;;13.30;99.90;;;;;;7389352;19;20151;-87
2023/10/07 07:06:17;;;;;;;2.25;1.45;;;13.40;99.90;;;;;;7394694;19;20156;-87
2023/10/07 07:08:46;;;;;;;2.55;1.92;;;13.20;99.90;;;;;;7397123;19;20142;-86
2023/10/07 07:11:16;;;;;;;2.10;1.30;;;13.40;99.90;;;;;;7393956;19;20523;-84
2023/10/07 07:13:44;;;;;;;2.72;1.42;;;13.50;99.90;;;;;;7394144;19;20499;-86
2023/10/07 07:16:13;;;;;;;1.13;0.95;;;13.50;99.90;;;;;;7396389;19;20548;-84
2023/10/07 07:18:44;;;;;;;3.60;1.52;;;13.10;99.90;;;;;;7392163;19;20146;-84
2023/10/07 07:21:31;;;;;;;3.42;1.63;;;13.10;99.90;;;;;;7394442;19;20158;-86
2023/10/07 07:23:58;;;;;;;2.38;1.35;;;13.10;99.90;;;;;;7394165;19;20139;-84
2023/10/07 07:26:24;;;;;;;2.10;1.50;;;13.10;99.90;;;;;;7395011;19;20572;-83
2023/10/07 07:28:55;;;;;;;3.88;1.77;;;13.10;99.90;;;;;;7393646;19;20130;-82
2023/10/07 07:31:26;;;;;;;2.47;1.67;;;13.70;99.90;;;;;;7392816;19;20206;-81
2023/10/07 07:33:52;;;;;;;3.28;1.67;;;13.80;99.90;;;;;;7394925;19;20231;-82
2023/10/07 07:36:24;;;;;;;2.67;1.70;;;13.90;99.90;;;;;;7392776;19;20497;-82
2023/10/07 07:38:54;;;;;;;2.38;2.00;;;13.70;99.90;;;;;;7393169;19;20592;-87
2023/10/07 07:41:34;;;;;;;3.55;1.88;;;13.90;99.90;;;;;;7393882;19;20148;-82
2023/10/07 07:44:00;;;;;;;1.83;1.33;;;13.90;99.90;;;;;;7385179;19;20166;-86
2023/10/07 07:46:29;;;;;;;2.78;1.52;;;14.10;99.90;;;;;;7381305;19;20658;-83
2023/10/07 07:49:08;;;;;;;2.45;1.55;;;14.10;99.90;;;;;;7387505;19;20139;-81
2023/10/07 07:52:27;;;;;;;2.78;1.50;;;14.20;99.90;;;;;;7400294;19;20133;-84
2023/10/07 07:54:56;;;;;;;2.03;1.60;;;14.20;99.90;;;;;;7389938;19;21419;-82
2023/10/07 07:57:24;;;;;;;1.60;1.10;;;14.10;99.90;;;;;;7390915;19;20159;-80
2023/10/07 07:59:50;;;;;;;2.10;1.35;;;14.10;99.90;;;;;;7392748;19;20146;-82
2023/10/07 08:02:17;;;;;;;2.13;1.40;;;14.20;99.90;;;;;;7391889;19;20198;-82
2023/10/07 08:04:47;;;;;;;2.65;1.48;;;14.20;99.90;;;;;;7392052;19;20138;-81
2023/10/07 08:10:13;;;;;;;2.60;1.55;;;14.30;99.90;;;;;;7392558;19;20176;-79
2023/10/07 08:12:39;;;;;;;2.58;1.58;;;14.60;99.90;;;;;;7391284;19;20147;-84
2023/10/07 08:15:38;;;;;;;3.30;1.70;;;14.80;99.90;;;;;;7384751;19;20620;-84
2023/10/07 08:17:59;;;;;;;3.67;2.13;;;15.00;99.90;;;;;;7393243;19;20493;-84
2023/10/07 08:20:37;;;;;;;2.15;1.23;;;15.10;99.90;;;;;;7393882;19;20575;-85
2023/10/07 08:23:07;;;;;;;2.45;1.55;;;15.20;99.90;;;;;;7392919;19;20145;-84
2023/10/07 08:25:46;;;;;;;1.88;1.33;;;15.30;99.90;;;;;;7396064;19;20149;-84
2023/10/07 08:28:19;;;;;;;4.07;1.73;;;15.20;99.90;;;;;;7397652;19;20135;-86
2023/10/07 08:30:48;;;;;;;2.22;1.20;;;15.50;99.90;;;;;;7395236;19;20214;-85
2023/10/07 08:33:15;;;;;;;2.42;1.65;;;15.60;99.90;;;;;;7394404;19;20214;-86
2023/10/07 08:35:47;;;;;;;2.78;1.63;;;15.60;99.90;;;;;;7394284;19;21692;-84
2023/10/07 08:38:22;;;;;;;1.52;1.10;;;15.70;99.90;;;;;;7393530;19;20536;-86
2023/10/07 08:40:59;;;;;;;3.22;1.70;;;15.70;99.90;;;;;;7395652;19;20142;-86
2023/10/07 08:43:32;;;;;;;2.50;1.75;;;15.80;99.90;;;;;;7393816;19;20157;-85
2023/10/07 08:46:01;;;;;;;1.50;1.25;;;16.00;99.90;;;;;;7393705;19;20135;-85
2023/10/07 08:48:36;;;;;;;3.67;1.45;;;16.20;99.90;;;;;;7392989;19;20143;-82
2023/10/07 08:51:10;;;;;;;3.25;1.63;;;16.20;99.90;;;;;;7393423;19;20148;-83
2023/10/07 08:53:37;;;;;;;2.35;1.30;;;16.40;99.90;;;;;;7393315;19;20138;-83
2023/10/07 08:56:09;;;;;;;2.63;1.58;;;16.50;99.90;;;;;;7393425;19;20151;-83
2023/10/07 08:58:41;;;;;;;3.03;1.55;;;16.50;99.90;;;;;;7390357;19;20157;-82
2023/10/07 09:01:17;;;;;;;3.03;1.67;;;16.50;99.90;;;;;;7392282;19;20150;-83
2023/10/07 09:03:49;;;;;;;3.50;1.95;;;16.60;99.90;;;;;;7391866;19;20145;-83
2023/10/07 09:06:20;;;;;;;2.45;1.65;;;16.60;99.90;;;;;;7396499;19;20181;-82
2023/10/07 09:08:52;;;;;;;2.00;1.27;;;16.70;99.90;;;;;;7393378;19;20155;-82
2023/10/07 09:11:19;;;;;;;2.33;1.65;;;16.70;99.90;;;;;;7393865;19;20483;-83
2023/10/07 09:13:47;;;;;;;2.08;1.48;;;16.70;99.90;;;;;;7392391;19;20149;-81
2023/10/07 09:16:21;;;;;;;4.15;2.65;;;16.70;99.90;;;;;;7390433;19;20130;-82
2023/10/07 09:18:55;;;;;;;8.85;5.00;;;16.80;99.90;;;;;;7389644;19;20147;-83
2023/10/07 09:21:28;;;;;;;3.88;1.40;;;16.90;99.90;;;;;;7391998;19;20134;-85
2023/10/07 09:24:02;;;;;;;2.72;1.75;;;16.90;99.90;;;;;;7390586;19;20142;-82
2023/10/07 09:26:38;;;;;;;1.85;1.35;;;16.90;99.90;;;;;;7387952;19;20146;-82
2023/10/07 09:29:16;;;;;;;1.70;1.20;;;16.90;99.90;;;;;;7390510;19;20166;-81
2023/10/07 09:31:56;;;;;;;3.78;1.55;;;17.00;99.90;;;;;;7392055;19;20138;-82
2023/10/07 09:34:41;;;;;;;2.10;1.55;;;17.00;99.90;;;;;;7390331;19;20163;-81
2023/10/07 09:37:21;;;;;;;2.35;1.42;;;17.00;99.90;;;;;;7392533;19;20493;-84
2023/10/07 09:40:18;;;;;;;3.25;2.00;;;17.10;99.90;;;;;;7390888;19;20163;-83
2023/10/07 09:42:56;;;;;;;2.53;1.38;;;17.00;99.90;;;;;;7390400;19;20138;-81
2023/10/07 09:45:28;;;;;;;1.85;1.25;;;17.10;99.90;;;;;;7388487;19;20142;-82
2023/10/07 09:48:00;;;;;;;2.63;1.35;;;17.10;99.90;;;;;;7389691;19;20134;-83
2023/10/07 09:50:33;;;;;;;3.40;1.45;;;17.10;99.90;;;;;;7392679;19;20126;-83
2023/10/07 09:53:20;;;;;;;3.30;1.85;;;17.10;99.90;;;;;;7388118;19;20138;-80
2023/10/07 09:56:21;;;;;;;2.72;1.52;;;17.30;99.90;;;;;;7390680;19;20135;-83
2023/10/07 09:59:22;;;;;;;3.90;2.13;;;17.30;99.90;;;;;;7390202;19;20157;-83
2023/10/07 10:02:27;;;;;;;1.95;1.40;;;17.40;99.90;;;;;;7392973;19;20142;-85
2023/10/07 10:05:25;;;;;;;3.15;1.63;;;17.30;99.90;;;;;;7393801;19;20146;-84
2023/10/07 10:08:29;;;;;;;2.53;1.75;;;17.40;99.90;;;;;;7395589;19;20153;-82
2023/10/07 10:10:58;;;;;;;3.83;2.13;;;17.50;99.90;;;;;;7391149;19;20134;-82
2023/10/07 10:13:29;;;;;;;2.92;1.80;;;17.50;99.90;;;;;;7390406;19;20142;-80
2023/10/07 10:16:00;;;;;;;2.45;1.48;;;17.50;99.90;;;;;;7391536;19;20137;-82
2023/10/07 10:18:40;;;;;;;3.20;1.42;;;17.70;99.90;;;;;;7386487;19;20209;-82
2023/10/07 10:21:12;;;;;;;2.47;1.67;;;17.70;99.90;;;;;;7388636;19;20169;-82
2023/10/07 10:23:51;;;;;;;2.22;1.50;;;17.80;99.90;;;;;;7389844;19;20134;-82
2023/10/07 10:26:21;;;;;;;1.65;1.35;;;17.90;99.90;;;;;;7389354;19;20146;-83
2023/10/07 10:29:07;;;;;;;1.85;1.00;;;18.00;99.90;;;;;;7391507;19;20190;-83
2023/10/07 10:31:34;;;;;;;2.85;1.42;;;17.90;99.90;;;;;;7392347;19;20481;-85
2023/10/07 10:34:05;;;;;;;2.30;1.27;;;17.80;99.90;;;;;;7390455;19;20142;-82
2023/10/07 10:36:38;;;;;;;1.88;1.15;;;17.80;99.90;;;;;;7392813;19;20238;-83
2023/10/07 10:39:18;;;;;;;1.35;1.00;;;17.70;99.90;;;;;;7390792;19;20233;-81
2023/10/07 10:41:52;;;;;;;3.13;1.40;;;17.90;99.90;;;;;;7399402;19;20170;-82
2023/10/07 10:44:26;;;;;;;3.85;1.95;;;18.00;99.90;;;;;;7400278;19;20158;-86
2023/10/07 10:46:52;;;;;;;1.48;0.95;;;18.10;99.90;;;;;;7397372;19;20588;-82
2023/10/07 10:49:20;;;;;;;2.50;1.08;;;18.20;99.90;;;;;;7396844;19;20150;-86
2023/10/07 10:51:54;;;;;;;1.45;0.95;;;18.30;99.90;;;;;;7396558;19;20879;-84
2023/10/07 10:54:22;;;;;;;1.27;0.88;;;18.50;99.90;;;;;;7397711;19;20239;-81
2023/10/07 10:56:55;;;;;;;1.27;0.85;;;18.60;99.90;;;;;;7396169;19;20143;-82
2023/10/07 10:59:36;;;;;;;1.02;0.60;;;18.60;99.90;;;;;;7394710;19;20180;-82
2023/10/07 11:02:05;;;;;;;1.77;0.90;;;18.70;99.90;;;;;;7395885;19;20186;-82
2023/10/07 11:04:32;;;;;;;1.27;0.93;;;18.70;99.90;;;;;;7396520;19;20172;-82
2023/10/07 11:06:59;;;;;;;1.02;0.65;;;18.80;99.90;;;;;;7393547;19;20173;-81
2023/10/07 11:09:26;;;;;;;1.00;0.60;;;18.90;99.90;;;;;;7397541;19;20596;-81
2023/10/07 11:11:55;;;;;;;1.73;0.93;;;19.00;99.90;;;;;;7397031;19;20154;-82
2023/10/07 11:14:23;;;;;;;1.23;0.63;;;19.10;99.90;;;;;;7396846;19;20468;-82
2023/10/07 11:16:50;;;;;;;1.45;1.00;;;19.20;99.90;;;;;;7398220;19;20154;-82
2023/10/07 11:19:18;;;;;;;2.40;0.80;;;19.10;99.90;;;;;;7393630;19;20158;-81
2023/10/07 11:21:48;;;;;;;1.88;1.20;;;19.10;99.90;;;;;;7398597;19;20609;-81
2023/10/07 11:24:30;;;;;;;1.75;0.90;;;19.20;99.90;;;;;;7395441;19;20139;-81
2023/10/07 11:26:59;;;;;;;3.80;1.40;;;19.10;99.90;;;;;;7397442;19;20142;-82
2023/10/07 11:29:32;;;;;;;0.73;0.68;;;19.20;99.90;;;;;;7396693;19;20135;-81
2023/10/07 11:31:59;;;;;;;1.30;0.80;;;19.20;99.90;;;;;;7397108;19;20166;-82
2023/10/07 11:34:33;;;;;;;1.10;0.95;;;19.20;99.90;;;;;;7398194;19;20131;-80
2023/10/07 11:37:10;;;;;;;1.42;0.93;;;19.20;99.90;;;;;;7393863;19;20134;-82
2023/10/07 11:39:47;;;;;;;1.92;0.75;;;19.20;99.90;;;;;;7395073;19;20616;-80
2023/10/07 11:42:14;;;;;;;1.63;0.82;;;19.20;99.90;;;;;;7396210;19;20165;-81
2023/10/07 11:44:41;;;;;;;1.13;0.90;;;19.10;99.90;;;;;;7394985;19;20226;-82
2023/10/07 11:47:10;;;;;;;2.00;1.05;;;19.10;99.90;;;;;;7394674;19;20607;-83
2023/10/07 11:49:37;;;;;;;1.35;0.77;;;19.20;99.90;;;;;;7398186;19;20174;-86
2023/10/07 11:52:04;;;;;;;0.93;0.60;;;19.20;99.90;;;;;;7396752;19;20604;-86
2023/10/07 11:54:34;;;;;;;2.33;1.23;;;19.20;99.90;;;;;;7397093;19;20149;-86
2023/10/07 11:57:02;;;;;;;2.13;0.95;;;19.30;99.90;;;;;;7396185;19;20147;-86
2023/10/07 11:59:28;;;;;;;0.95;0.88;;;19.20;99.90;;;;;;7393119;19;20135;-82
2023/10/07 12:01:54;;;;;;;1.80;0.98;;;19.30;99.90;;;;;;7394017;19;20171;-81
2023/10/07 12:04:21;;;;;;;1.52;0.70;;;19.30;99.90;;;;;;7394661;19;20138;-83
2023/10/07 12:06:50;;;;;;;1.13;0.80;;;19.30;99.90;;;;;;7391400;19;20186;-82
2023/10/07 12:09:21;;;;;;;1.33;0.90;;;19.40;99.90;;;;;;7394520;19;20630;-83
2023/10/07 12:11:48;;;;;;;1.52;0.95;;;19.50;99.90;;;;;;7393563;19;20154;-82
2023/10/07 12:14:16;;;;;;;0.98;0.75;;;19.50;99.90;;;;;;7393005;19;20135;-82
2023/10/07 12:16:43;;;;;;;2.45;0.90;;;19.60;99.90;;;;;;7392612;19;20534;-80
2023/10/07 12:19:11;;;;;;;1.20;0.70;;;19.60;99.90;;;;;;7390084;19;20550;-80
2023/10/07 12:21:39;;;;;;;1.30;0.88;;;19.60;99.90;;;;;;7393231;19;20615;-81
2023/10/07 12:24:06;;;;;;;1.48;1.08;;;19.60;99.90;;;;;;7389713;19;20146;-81
2023/10/07 12:26:32;;;;;;;3.60;1.45;;;19.60;99.90;;;;;;7393703;19;20134;-81
2023/10/07 12:28:58;;;;;;;1.02;0.75;;;19.60;99.90;;;;;;7391521;19;20530;-82
2023/10/07 12:31:24;;;;;;;1.10;0.73;;;19.60;99.90;;;;;;7393680;19;20146;-82
2023/10/07 12:33:50;;;;;;;1.45;0.80;;;19.60;99.90;;;;;;7391838;19;20149;-81
2023/10/07 12:36:18;;;;;;;0.77;0.60;;;19.60;99.90;;;;;;7395323;19;20134;-81
2023/10/07 12:38:44;;;;;;;3.13;0.98;;;19.60;99.90;;;;;;7390762;19;20138;-81
2023/10/07 12:41:13;;;;;;;2.22;1.10;;;19.60;99.90;;;;;;7392967;19;20126;-81
2023/10/07 12:43:39;;;;;;;1.20;0.75;;;19.60;99.90;;;;;;7393035;19;20126;-82
2023/10/07 12:46:09;;;;;;;1.25;0.90;;;19.50;99.90;;;;;;7392160;19;20170;-81
2023/10/07 12:48:37;;;;;;;1.88;1.08;;;19.50;99.90;;;;;;7394017;19;20126;-81
2023/10/07 12:51:06;;;;;;;1.13;0.90;;;19.60;99.90;;;;;;7392565;19;20138;-81
2023/10/07 12:53:36;;;;;;;2.00;1.30;;;19.70;99.90;;;;;;7391849;19;20142;-82
2023/10/07 12:56:19;;;;;;;1.25;1.00;;;19.60;99.90;;;;;;7392847;19;20139;-82
2023/10/07 12:58:51;;;;;;;1.63;1.02;;;19.70;99.90;;;;;;7389275;19;20138;-81
2023/10/07 13:01:19;;;;;;;1.00;0.60;;;19.80;99.90;;;;;;7391940;19;20477;-82
2023/10/07 13:03:45;;;;;;;1.63;1.20;;;19.80;99.90;;;;;;7391057;19;20198;-81
2023/10/07 13:06:17;;;;;;;1.15;0.90;;;19.90;99.90;;;;;;7392291;19;20159;-82
2023/10/07 13:08:44;;;;;;;1.70;0.80;;;19.90;99.90;;;;;;7392367;19;20142;-82
2023/10/07 13:11:14;;;;;;;0.93;0.70;;;20.00;99.90;;;;;;7395310;19;20145;-82
2023/10/07 13:13:40;;;;;;;0.80;0.80;;;20.00;99.90;;;;;;7392937;19;20131;-82
2023/10/07 13:16:13;;;;;;;1.40;1.00;;;20.10;99.90;;;;;;7392402;19;20662;-81
2023/10/07 13:18:40;;;;;;;1.25;1.00;;;20.00;99.90;;;;;;7389873;19;20146;-82
2023/10/07 13:21:13;;;;;;;1.92;1.23;;;20.00;99.90;;;;;;7391164;19;20180;-82
2023/10/07 13:23:40;;;;;;;1.45;0.90;;;20.00;99.90;;;;;;7393150;19;20138;-82
2023/10/07 13:26:10;;;;;;;1.67;0.90;;;20.00;99.90;;;;;;7392166;19;20142;-81
2023/10/07 13:28:38;;;;;;;2.25;1.08;;;20.00;99.90;;;;;;7395137;19;20213;-82
2023/10/07 13:31:07;;;;;;;2.53;0.80;;;20.00;99.90;;;;;;7391063;19;20592;-82
2023/10/07 13:33:36;;;;;;;1.67;0.70;;;19.90;99.90;;;;;;7392987;19;20190;-81
2023/10/07 13:36:07;;;;;;;1.65;1.10;;;19.80;99.90;;;;;;7391574;19;20149;-81
2023/10/07 13:38:33;;;;;;;1.85;0.88;;;19.70;99.90;;;;;;7391353;19;20134;-82
2023/10/07 13:41:03;;;;;;;1.58;0.80;;;19.70;99.90;;;;;;7392476;19;20174;-81
2023/10/07 13:43:29;;;;;;;1.60;1.08;;;19.60;99.90;;;;;;7392836;19;20134;-81